createdAt,value
2023-03-12T00:02:30.043Z,1.39
2023-03-12T00:05:31.912Z,1.32
2023-03-12T00:08:33.935Z,1.32
2023-03-12T00:11:35.726Z,1.31
2023-03-12T00:14:37.620Z,1.31
2023-03-12T00:17:39.422Z,1.34
2023-03-12T00:20:41.352Z,1.33
2023-03-12T00:23:43.281Z,1.14
2023-03-12T00:26:45.064Z,1.29
2023-03-12T00:29:46.946Z,1.23
2023-03-12T00:32:48.715Z,1.22
2023-03-12T00:35:50.812Z,1.19
2023-03-12T00:38:53.177Z,1.16
2023-03-12T00:41:55.572Z,1.13
2023-03-12T00:44:57.351Z,1.09
2023-03-12T00:47:59.229Z,1.04
2023-03-12T00:51:01.105Z,1.08
2023-03-12T00:54:02.974Z,1.08
2023-03-12T00:57:04.984Z,1.12
2023-03-12T01:00:10.783Z,1.04
2023-03-12T01:03:15.440Z,1.02
2023-03-12T01:06:17.737Z,1.10
2023-03-12T01:09:19.914Z,1.10
2023-03-12T01:12:21.854Z,1.10
2023-03-12T01:15:23.888Z,1.10
2023-03-12T01:18:25.974Z,1.09
2023-03-12T01:21:29.884Z,1.05
2023-03-12T01:24:31.814Z,1.01
2023-03-12T01:27:33.617Z,1.01
2023-03-12T01:30:35.695Z,0.98
2023-03-12T01:33:37.893Z,0.92
2023-03-12T01:36:39.697Z,0.85
2023-03-12T01:39:41.537Z,0.86
2023-03-12T01:42:43.444Z,0.87
2023-03-12T01:46:06.573Z,0.82
2023-03-12T01:49:26.778Z,0.77
2023-03-12T01:52:34.208Z,0.70
2023-03-12T01:55:36.008Z,0.66
2023-03-12T01:58:40.944Z,0.63
2023-03-12T02:01:43.439Z,0.56
2023-03-12T02:04:46.120Z,0.51
2023-03-12T02:07:47.990Z,0.51
2023-03-12T02:10:49.959Z,0.48
2023-03-12T02:13:51.700Z,0.49
2023-03-12T02:16:54.285Z,0.45
2023-03-12T02:20:08.049Z,0.42
2023-03-12T02:23:14.029Z,0.40
2023-03-12T02:26:16.870Z,0.39
2023-03-12T02:29:19.215Z,0.36
2023-03-12T02:32:27.364Z,0.35
2023-03-12T02:35:29.100Z,0.37
2023-03-12T02:38:40.072Z,0.32
2023-03-12T02:41:44.158Z,0.30
2023-03-12T02:44:46.088Z,0.38
2023-03-12T02:47:47.944Z,0.35
2023-03-12T02:50:49.797Z,0.36
2023-03-12T02:53:54.989Z,0.40
2023-03-12T02:56:57.155Z,0.31
2023-03-12T02:59:59.285Z,0.32
2023-03-12T03:03:01.684Z,0.37
2023-03-12T03:06:03.648Z,0.30
2023-03-12T03:09:05.717Z,0.26
2023-03-12T03:12:07.681Z,0.28
2023-03-12T03:15:10.617Z,0.16
2023-03-12T03:18:12.444Z,0.20
2023-03-12T03:21:16.739Z,0.18
2023-03-12T03:24:18.789Z,0.18
2023-03-12T03:27:20.655Z,0.19
2023-03-12T03:30:22.740Z,0.15
2023-03-12T03:33:24.620Z,0.07
2023-03-12T03:36:26.506Z,0.00
2023-03-12T03:39:29.522Z,-0.05
2023-03-12T03:42:31.421Z,-0.06
2023-03-12T03:45:33.181Z,-0.04
2023-03-12T03:48:35.069Z,-0.10
2023-03-12T03:51:37.127Z,-0.10
2023-03-12T03:54:38.874Z,-0.07
2023-03-12T03:57:40.984Z,-0.13
2023-03-12T04:00:45.282Z,-0.17
2023-03-12T04:03:48.182Z,-0.13
2023-03-12T04:06:50.429Z,-0.15
2023-03-12T04:09:52.259Z,-0.11
2023-03-12T04:12:54.184Z,-0.16
2023-03-12T04:15:56.076Z,-0.07
2023-03-12T04:18:57.894Z,-0.05
2023-03-12T04:21:59.713Z,-0.06
2023-03-12T04:25:01.559Z,-0.05
2023-03-12T04:28:03.666Z,-0.05
2023-03-12T04:31:07.689Z,-0.02
2023-03-12T04:34:11.948Z,-0.04
2023-03-12T04:37:15.193Z,-0.04
2023-03-12T04:40:19.272Z,-0.02
2023-03-12T04:43:21.206Z,-0.01
2023-03-12T04:46:23.204Z,0.00
2023-03-12T04:49:25.359Z,-0.03
2023-03-12T04:52:27.323Z,-0.02
2023-03-12T04:55:29.157Z,0.06
2023-03-12T04:58:31.206Z,0.07
2023-03-12T05:01:35.743Z,0.07
2023-03-12T05:04:37.583Z,0.08
2023-03-12T05:07:39.354Z,0.05
2023-03-12T05:10:41.366Z,-0.02
2023-03-12T05:13:43.572Z,0.07
2023-03-12T05:16:45.579Z,0.10
2023-03-12T05:19:47.411Z,0.13
2023-03-12T05:22:49.251Z,0.12
2023-03-12T05:25:51.067Z,0.12
2023-03-12T05:28:53.010Z,0.17
2023-03-12T05:31:54.800Z,0.20
2023-03-12T05:34:56.662Z,0.16
2023-03-12T05:37:58.462Z,0.25
2023-03-12T05:41:00.609Z,0.28
2023-03-12T05:44:02.492Z,0.38
2023-03-12T05:47:04.346Z,0.42
2023-03-12T05:50:06.578Z,0.40
2023-03-12T05:53:09.382Z,0.47
2023-03-12T05:56:13.495Z,1.35
2023-03-12T05:59:15.593Z,1.65
2023-03-12T06:02:17.466Z,4.36
2023-03-12T06:05:19.281Z,6.55
2023-03-12T06:08:22.719Z,7.12
2023-03-12T06:11:24.682Z,4.96
2023-03-12T06:14:26.577Z,4.49
2023-03-12T06:17:30.192Z,3.44
2023-03-12T06:20:33.735Z,2.94
2023-03-12T06:23:35.916Z,2.83
2023-03-12T06:26:37.858Z,3.00
2023-03-12T06:29:39.703Z,2.78
2023-03-12T06:32:41.605Z,2.94
2023-03-12T06:35:43.579Z,2.82
2023-03-12T06:38:45.454Z,3.06
2023-03-12T06:41:47.288Z,2.98
2023-03-12T06:44:50.156Z,3.14
2023-03-12T06:47:52.025Z,3.03
2023-03-12T06:50:53.865Z,3.41
2023-03-12T06:53:55.805Z,3.16
2023-03-12T06:56:59.437Z,3.55
2023-03-12T07:00:01.340Z,3.46
2023-03-12T07:03:03.204Z,3.63
2023-03-12T07:06:05.722Z,3.64
2023-03-12T07:09:07.846Z,3.88
2023-03-12T07:12:10.076Z,3.89
2023-03-12T07:15:12.735Z,4.17
2023-03-12T07:18:14.701Z,4.17
2023-03-12T07:21:22.698Z,3.84
2023-03-12T07:24:24.607Z,4.26
2023-03-12T07:27:26.437Z,4.20
2023-03-12T07:30:31.842Z,4.12
2023-03-12T07:33:34.237Z,4.14
2023-03-12T07:36:36.249Z,4.27
2023-03-12T07:39:38.364Z,4.27
2023-03-12T07:42:40.309Z,4.30
2023-03-12T07:45:42.600Z,4.36
2023-03-12T07:48:44.696Z,4.31
2023-03-12T07:51:46.933Z,4.84
2023-03-12T07:54:49.171Z,4.96
2023-03-12T07:57:51.493Z,4.97
2023-03-12T08:00:56.291Z,5.31
2023-03-12T08:04:02.029Z,5.50
2023-03-12T08:07:04.122Z,5.33
2023-03-12T08:10:08.632Z,5.78
2023-03-12T08:13:10.896Z,5.35
2023-03-12T08:16:13.430Z,5.32
2023-03-12T08:19:16.482Z,5.36
2023-03-12T08:22:18.315Z,5.62
2023-03-12T08:25:21.169Z,5.69
2023-03-12T08:28:24.728Z,5.56
2023-03-12T08:31:28.313Z,5.78
2023-03-12T08:34:30.328Z,6.12
2023-03-12T08:37:32.954Z,6.46
2023-03-12T08:40:35.388Z,6.50
2023-03-12T08:43:37.574Z,6.17
2023-03-12T08:46:40.219Z,6.06
2023-03-12T08:49:46.924Z,6.51
2023-03-12T08:52:49.194Z,6.81
2023-03-12T08:55:55.393Z,7.18
2023-03-12T08:59:00.803Z,7.01
2023-03-12T09:02:02.961Z,6.88
2023-03-12T09:05:05.378Z,7.10
2023-03-12T09:08:08.266Z,7.09
2023-03-12T09:11:11.890Z,6.77
2023-03-12T09:15:01.554Z,6.93
2023-03-12T09:17:35.893Z,7.60
2023-03-12T09:20:39.082Z,7.14
2023-03-12T09:23:40.990Z,7.27
2023-03-12T09:26:42.860Z,7.66
2023-03-12T09:29:58.793Z,7.87
2023-03-12T09:33:01.341Z,7.98
2023-03-12T09:36:03.770Z,8.10
2023-03-12T09:39:05.991Z,8.09
2023-03-12T09:42:15.441Z,8.33
2023-03-12T09:45:23.579Z,8.39
2023-03-12T09:48:32.456Z,8.54
2023-03-12T09:51:49.316Z,8.47
2023-03-12T09:55:04.432Z,8.19
2023-03-12T09:58:13.683Z,7.53
2023-03-12T10:01:46.464Z,8.02
2023-03-12T10:04:59.831Z,8.36
2023-03-12T10:08:30.647Z,8.60
2023-03-12T10:11:56.919Z,8.28
2023-03-12T10:15:22.068Z,8.60
2023-03-12T10:18:31.820Z,8.59
2023-03-12T10:21:50.193Z,8.62
2023-03-12T10:25:08.773Z,8.58
2023-03-12T10:28:22.780Z,8.03
2023-03-12T10:31:29.145Z,8.95
2023-03-12T10:34:46.083Z,9.05
2023-03-12T10:37:58.297Z,9.36
2023-03-12T10:41:00.621Z,8.56
2023-03-12T10:44:06.624Z,8.76
2023-03-12T10:47:20.809Z,8.64
2023-03-12T10:50:26.303Z,8.48
2023-03-12T10:53:32.066Z,8.94
2023-03-12T10:56:48.953Z,8.85
2023-03-12T10:59:51.377Z,9.33
2023-03-12T11:03:04.814Z,8.85
2023-03-12T11:06:08.311Z,9.22
2023-03-12T11:09:16.736Z,9.51
2023-03-12T11:12:24.601Z,9.68
2023-03-12T11:15:41.427Z,9.27
2023-03-12T11:19:01.525Z,9.72
2023-03-12T11:22:11.802Z,9.63
2023-03-12T11:25:30.233Z,9.43
2023-03-12T11:28:40.874Z,9.54
2023-03-12T11:31:48.206Z,9.53
2023-03-12T11:34:50.574Z,9.42
2023-03-12T11:37:58.305Z,9.60
2023-03-12T11:41:06.044Z,9.49
2023-03-12T11:44:29.003Z,9.83
2023-03-12T11:47:49.568Z,9.80
2023-03-12T11:51:25.623Z,10.11
2023-03-12T11:54:42.482Z,10.08
2023-03-12T11:58:21.980Z,9.71
2023-03-12T12:01:40.851Z,9.90
2023-03-12T12:05:17.672Z,9.60
2023-03-12T12:08:19.371Z,9.14
2023-03-12T12:11:21.182Z,9.58
2023-03-12T12:14:25.924Z,9.70
2023-03-12T12:17:47.554Z,9.63
2023-03-12T12:21:02.216Z,9.77
2023-03-12T12:24:10.235Z,9.78
2023-03-12T12:27:32.330Z,9.82
2023-03-12T12:30:50.219Z,9.41
2023-03-12T12:34:07.666Z,9.75
2023-03-12T12:37:12.076Z,9.92
2023-03-12T12:40:34.975Z,9.94
2023-03-12T12:43:41.824Z,9.89
2023-03-12T12:46:48.313Z,9.80
2023-03-12T12:49:54.507Z,9.47
2023-03-12T12:53:06.265Z,9.46
2023-03-12T12:56:26.176Z,9.63
2023-03-12T13:00:06.406Z,9.50
2023-03-12T13:03:21.293Z,9.67
2023-03-12T13:06:29.224Z,9.86
2023-03-12T13:09:50.756Z,9.96
2023-03-12T13:12:55.557Z,9.78
2023-03-12T13:16:17.026Z,9.58
2023-03-12T13:19:19.076Z,9.71
2023-03-12T13:22:35.518Z,9.45
2023-03-12T13:25:56.001Z,9.87
2023-03-12T13:29:12.201Z,10.00
2023-03-12T13:32:35.708Z,9.83
2023-03-12T13:35:39.371Z,9.64
2023-03-12T13:39:01.322Z,9.82
2023-03-12T13:42:24.979Z,9.94
2023-03-12T13:45:30.614Z,9.49
2023-03-12T13:48:36.498Z,9.59
2023-03-12T13:51:46.779Z,9.26
2023-03-12T13:55:21.787Z,9.64
2023-03-12T13:58:23.750Z,9.61
2023-03-12T14:01:37.867Z,9.45
2023-03-12T14:04:41.727Z,9.47
2023-03-12T14:08:12.706Z,9.50
2023-03-12T14:11:21.084Z,9.15
2023-03-12T14:14:41.565Z,9.25
2023-03-12T14:17:44.180Z,9.02
2023-03-12T14:20:53.933Z,9.09
2023-03-12T14:23:58.218Z,9.03
2023-03-12T14:27:01.700Z,8.91
2023-03-12T14:30:12.651Z,8.78
2023-03-12T14:33:16.131Z,8.73
2023-03-12T14:36:20.651Z,8.96
2023-03-12T14:39:30.487Z,8.95
2023-03-12T14:42:34.610Z,8.78
2023-03-12T14:45:40.240Z,8.80
2023-03-12T14:48:42.253Z,8.81
2023-03-12T14:51:44.262Z,8.79
2023-03-12T14:55:04.588Z,8.67
2023-03-12T14:58:14.802Z,8.67
2023-03-12T15:01:23.535Z,8.40
2023-03-12T15:04:25.913Z,8.00
2023-03-12T15:07:39.531Z,8.14
2023-03-12T15:10:48.218Z,8.22
2023-03-12T15:13:50.770Z,8.00
2023-03-12T15:16:53.201Z,7.94
2023-03-12T15:19:57.266Z,7.84
2023-03-12T15:23:00.243Z,7.83
2023-03-12T15:26:13.794Z,7.77
2023-03-12T15:29:30.275Z,7.69
2023-03-12T15:32:32.365Z,7.71
2023-03-12T15:35:37.342Z,7.62
2023-03-12T15:38:45.418Z,7.54
2023-03-12T15:41:51.484Z,7.49
2023-03-12T15:45:03.323Z,7.46
2023-03-12T15:48:36.789Z,7.43
2023-03-12T15:51:40.538Z,7.42
2023-03-12T15:54:42.933Z,7.34
2023-03-12T15:57:52.027Z,7.28
2023-03-12T16:00:54.340Z,7.19
2023-03-12T16:03:58.650Z,7.13
2023-03-12T16:07:01.923Z,7.01
2023-03-12T16:10:04.780Z,6.89
2023-03-12T16:13:06.781Z,6.91
2023-03-12T16:16:12.416Z,6.85
2023-03-12T16:19:20.281Z,6.79
2023-03-12T16:22:22.557Z,6.70
2023-03-12T16:25:24.738Z,6.61
2023-03-12T16:28:27.330Z,6.53
2023-03-12T16:31:29.989Z,6.45
2023-03-12T16:34:32.070Z,6.35
2023-03-12T16:37:33.998Z,6.30
2023-03-12T16:40:38.721Z,6.25
2023-03-12T16:43:41.888Z,6.17
2023-03-12T16:46:45.363Z,6.10
2023-03-12T16:49:47.465Z,6.00
2023-03-12T16:52:53.315Z,5.95
2023-03-12T16:56:01.101Z,5.86
2023-03-12T16:59:08.699Z,5.73
2023-03-12T17:02:16.174Z,5.65
2023-03-12T17:05:18.265Z,5.55
2023-03-12T17:08:20.408Z,5.42
2023-03-12T17:11:30.077Z,5.30
2023-03-12T17:14:32.333Z,5.18
2023-03-12T17:17:34.434Z,5.08
2023-03-12T17:20:36.471Z,4.96
2023-03-12T17:23:39.394Z,4.86
2023-03-12T17:26:43.317Z,4.75
2023-03-12T17:29:45.355Z,4.67
2023-03-12T17:32:47.813Z,4.52
2023-03-12T17:36:02.200Z,4.44
2023-03-12T17:39:04.568Z,4.39
2023-03-12T17:42:06.839Z,4.32
2023-03-12T17:45:09.856Z,4.22
2023-03-12T17:48:12.144Z,4.18
2023-03-12T17:51:14.222Z,4.12
2023-03-12T17:54:16.275Z,4.02
2023-03-12T17:57:18.516Z,3.96
2023-03-12T18:00:22.958Z,3.81
2023-03-12T18:03:24.988Z,3.74
2023-03-12T18:06:27.073Z,3.66
2023-03-12T18:09:29.127Z,3.56
2023-03-12T18:12:30.963Z,3.47
2023-03-12T18:15:33.051Z,3.41
2023-03-12T18:18:35.119Z,3.38
2023-03-12T18:21:37.086Z,3.13
2023-03-12T18:24:39.127Z,2.84
2023-03-12T18:27:41.277Z,2.28
2023-03-12T18:30:46.988Z,1.72
2023-03-12T18:33:49.098Z,1.99
2023-03-12T18:36:51.118Z,2.09
2023-03-12T18:39:53.172Z,2.15
2023-03-12T18:42:59.870Z,2.09
2023-03-12T18:46:02.126Z,2.12
2023-03-12T18:49:07.744Z,2.08
2023-03-12T18:52:09.968Z,2.05
2023-03-12T18:55:15.631Z,2.00
2023-03-12T18:58:17.733Z,2.11
2023-03-12T19:01:19.787Z,2.15
2023-03-12T19:04:22.138Z,2.16
2023-03-12T19:07:24.230Z,2.15
2023-03-12T19:10:26.590Z,2.10
2023-03-12T19:13:28.667Z,2.07
2023-03-12T19:16:31.570Z,2.06
2023-03-12T19:19:34.310Z,2.05
2023-03-12T19:22:36.417Z,2.14
2023-03-12T19:25:38.878Z,2.20
2023-03-12T19:28:41.663Z,2.23
2023-03-12T19:31:43.853Z,2.28
2023-03-12T19:34:50.543Z,2.32
2023-03-12T19:37:54.420Z,2.32
2023-03-12T19:40:58.070Z,2.15
2023-03-12T19:44:00.193Z,2.20
2023-03-12T19:47:06.866Z,2.00
2023-03-12T19:50:10.857Z,2.01
2023-03-12T19:53:14.641Z,2.08
2023-03-12T19:56:18.575Z,2.11
2023-03-12T19:59:20.717Z,2.16
2023-03-12T20:02:22.761Z,2.18
2023-03-12T20:05:25.716Z,2.15
2023-03-12T20:08:30.939Z,2.08
2023-03-12T20:11:35.361Z,2.10
2023-03-12T20:14:37.375Z,1.87
2023-03-12T20:17:39.561Z,1.94
2023-03-12T20:20:42.987Z,1.92
2023-03-12T20:23:45.231Z,1.50
2023-03-12T20:26:47.062Z,1.54
2023-03-12T20:29:50.836Z,1.67
2023-03-12T20:32:57.923Z,1.58
2023-03-12T20:36:00.201Z,1.53
2023-03-12T20:39:02.240Z,1.66
2023-03-12T20:42:04.970Z,1.70
2023-03-12T20:45:07.780Z,1.74
2023-03-12T20:48:10.797Z,1.71
2023-03-12T20:51:12.988Z,1.55
2023-03-12T20:54:15.179Z,1.41
2023-03-12T20:57:17.350Z,1.42
2023-03-12T21:00:25.133Z,1.54
2023-03-12T21:03:27.168Z,1.61
2023-03-12T21:06:29.174Z,1.64
2023-03-12T21:09:31.264Z,1.36
2023-03-12T21:12:33.458Z,1.18
2023-03-12T21:15:37.270Z,1.22
2023-03-12T21:18:39.416Z,1.26
2023-03-12T21:21:41.820Z,1.27
2023-03-12T21:24:43.884Z,1.40
2023-03-12T21:27:50.855Z,1.49
2023-03-12T21:30:53.506Z,1.70
2023-03-12T21:33:59.231Z,1.80
2023-03-12T21:37:01.101Z,1.87
2023-03-12T21:40:03.484Z,1.86
2023-03-12T21:43:05.864Z,1.88
2023-03-12T21:46:09.677Z,1.87
2023-03-12T21:49:13.879Z,2.00
2023-03-12T21:52:15.773Z,2.07
2023-03-12T21:55:17.964Z,2.07
2023-03-12T21:58:19.849Z,2.13
2023-03-12T22:01:21.671Z,2.13
2023-03-12T22:04:24.444Z,1.91
2023-03-12T22:07:26.216Z,1.80
2023-03-12T22:10:28.193Z,1.56
2023-03-12T22:13:30.014Z,1.83
2023-03-12T22:16:31.866Z,1.74
2023-03-12T22:19:33.683Z,1.77
2023-03-12T22:22:35.735Z,1.84
2023-03-12T22:25:37.622Z,1.92
2023-03-12T22:28:40.449Z,2.14
2023-03-12T22:31:42.252Z,2.24
2023-03-12T22:34:44.040Z,2.39
2023-03-12T22:37:45.855Z,2.47
2023-03-12T22:40:49.039Z,2.51
2023-03-12T22:43:54.248Z,2.52
2023-03-12T22:46:56.308Z,2.55
2023-03-12T22:49:58.479Z,2.67
2023-03-12T22:53:00.336Z,2.74
2023-03-12T22:56:07.584Z,2.75
2023-03-12T22:59:09.439Z,2.77
2023-03-12T23:02:11.499Z,2.80
2023-03-12T23:05:13.248Z,2.78
2023-03-12T23:08:15.364Z,2.68
2023-03-12T23:11:18.767Z,2.63
2023-03-12T23:14:20.913Z,2.59
2023-03-12T23:17:23.520Z,2.60
2023-03-12T23:20:25.521Z,2.70
2023-03-12T23:23:27.498Z,2.77
2023-03-12T23:26:29.353Z,2.86
2023-03-12T23:29:31.728Z,2.94
2023-03-12T23:32:34.790Z,3.04
2023-03-12T23:35:36.798Z,3.08
2023-03-12T23:38:38.766Z,3.13
2023-03-12T23:41:40.793Z,3.13
2023-03-12T23:44:42.599Z,3.19
2023-03-12T23:47:44.373Z,3.23
2023-03-12T23:50:46.442Z,3.22
2023-03-12T23:53:50.660Z,3.28
2023-03-12T23:56:52.494Z,3.31
2023-03-12T23:59:54.329Z,3.24
